createdAt,value
2019-02-03T00:02:21.190Z,27.22
2019-02-03T00:04:51.686Z,30.40
2019-02-03T00:07:22.294Z,29.23
2019-02-03T00:09:52.852Z,29.35
2019-02-03T00:12:23.750Z,28.40
2019-02-03T00:14:54.319Z,28.60
2019-02-03T00:17:24.796Z,30.17
2019-02-03T00:19:55.294Z,26.82
2019-02-03T00:22:25.778Z,28.30
2019-02-03T00:24:56.669Z,29.00
2019-02-03T00:27:27.186Z,27.98
2019-02-03T00:29:57.756Z,26.82
2019-02-03T00:32:28.220Z,28.20
2019-02-03T00:34:58.690Z,28.17
2019-02-03T00:37:29.540Z,27.58
2019-02-03T00:40:00.023Z,26.70
2019-02-03T00:42:30.573Z,28.75
2019-02-03T00:45:01.726Z,27.58
2019-02-03T00:47:32.230Z,28.50
2019-02-03T00:50:02.896Z,28.57
2019-02-03T00:52:33.460Z,28.90
2019-02-03T00:55:04.818Z,28.12
2019-02-03T00:57:35.345Z,26.57
2019-02-03T01:00:07.959Z,28.83
2019-02-03T01:02:38.469Z,28.40
2019-02-03T01:05:13.993Z,31.73
2019-02-03T01:07:44.557Z,28.83
2019-02-03T01:10:20.748Z,27.65
2019-02-03T01:12:51.617Z,29.40
2019-02-03T01:15:22.308Z,30.75
2019-02-03T01:17:52.946Z,29.30
2019-02-03T01:20:23.678Z,29.70
2019-02-03T01:22:54.294Z,30.62
2019-02-03T01:25:24.813Z,29.30
2019-02-03T01:27:55.272Z,30.17
2019-02-03T01:30:25.751Z,31.00
2019-02-03T01:32:56.296Z,29.50
2019-02-03T01:35:26.797Z,31.02
2019-02-03T01:37:57.456Z,31.68
2019-02-03T01:40:28.002Z,31.30
2019-02-03T01:42:58.496Z,32.42
2019-02-03T01:45:28.980Z,29.85
2019-02-03T01:47:59.514Z,31.25
2019-02-03T01:50:30.180Z,28.38
2019-02-03T01:53:00.662Z,30.10
2019-02-03T01:55:31.215Z,28.92
2019-02-03T01:58:01.689Z,29.13
2019-02-03T02:00:32.284Z,30.72
2019-02-03T02:03:03.307Z,27.80
2019-02-03T02:05:33.812Z,28.52
2019-02-03T02:08:04.303Z,29.20
2019-02-03T02:10:34.850Z,29.15
2019-02-03T02:13:08.137Z,29.05
2019-02-03T02:15:38.684Z,28.42
2019-02-03T02:18:09.226Z,25.97
2019-02-03T02:20:39.701Z,27.60
2019-02-03T02:23:10.195Z,27.65
2019-02-03T02:25:40.761Z,27.45
2019-02-03T02:28:11.239Z,28.83
2019-02-03T02:30:41.808Z,27.02
2019-02-03T02:33:12.319Z,25.92
2019-02-03T02:35:42.971Z,29.07
2019-02-03T02:38:13.530Z,27.27
2019-02-03T02:40:44.345Z,27.17
2019-02-03T02:43:14.821Z,27.52
2019-02-03T02:45:45.283Z,27.15
2019-02-03T02:48:15.863Z,27.62
2019-02-03T02:50:46.792Z,26.93
2019-02-03T02:53:17.387Z,26.33
2019-02-03T02:55:47.899Z,27.32
2019-02-03T02:58:18.380Z,28.07
2019-02-03T03:00:48.864Z,27.10
2019-02-03T03:03:19.402Z,28.90
2019-02-03T03:05:50.187Z,25.10
2019-02-03T03:08:20.658Z,25.92
2019-02-03T03:10:51.214Z,25.95
2019-02-03T03:13:21.679Z,26.25
2019-02-03T03:15:52.157Z,25.10
2019-02-03T03:18:23.034Z,25.35
2019-02-03T03:20:53.493Z,24.67
2019-02-03T03:23:24.001Z,23.83
2019-02-03T03:25:54.556Z,23.55
2019-02-03T03:28:25.048Z,25.20
2019-02-03T03:30:55.716Z,25.57
2019-02-03T03:33:26.249Z,24.92
2019-02-03T03:35:56.750Z,24.18
2019-02-03T03:38:32.124Z,23.75
2019-02-03T03:40:59.467Z,25.15
2019-02-03T03:43:30.110Z,23.00
2019-02-03T03:46:00.644Z,23.83
2019-02-03T03:51:13.671Z,23.00
2019-02-03T03:53:44.559Z,21.73
2019-02-03T03:56:16.539Z,22.73
2019-02-03T03:58:47.185Z,21.68
2019-02-03T04:01:17.803Z,22.30
2019-02-03T04:03:48.384Z,22.35
2019-02-03T04:06:19.291Z,21.12
2019-02-03T04:08:49.902Z,20.25
2019-02-03T04:11:20.506Z,23.30
2019-02-03T04:13:51.522Z,21.68
2019-02-03T04:16:23.411Z,22.45
2019-02-03T04:18:54.537Z,21.77
2019-02-03T04:21:25.113Z,23.60
2019-02-03T04:23:55.719Z,22.55
2019-02-03T04:26:26.358Z,21.47
2019-02-03T04:28:57.156Z,21.45
2019-02-03T04:31:27.727Z,21.77
2019-02-03T04:33:58.384Z,21.45
2019-02-03T04:36:29.379Z,19.20
2019-02-03T04:38:59.957Z,19.17
2019-02-03T04:41:30.574Z,21.37
2019-02-03T04:44:01.224Z,20.88
2019-02-03T04:46:31.731Z,19.98
2019-02-03T04:49:02.543Z,19.10
2019-02-03T04:51:33.089Z,19.48
2019-02-03T04:54:03.661Z,19.93
2019-02-03T04:56:34.499Z,19.45
2019-02-03T04:59:06.361Z,19.10
2019-02-03T05:01:37.044Z,18.90
2019-02-03T05:04:07.822Z,17.45
2019-02-03T05:06:38.440Z,18.07
2019-02-03T05:09:11.522Z,18.62
2019-02-03T05:11:42.452Z,18.65
2019-02-03T05:14:13.440Z,18.02
2019-02-03T05:16:44.186Z,16.17
2019-02-03T05:19:14.929Z,17.85
2019-02-03T05:21:45.697Z,17.92
2019-02-03T05:24:16.511Z,18.17
2019-02-03T05:26:47.235Z,17.90
2019-02-03T05:29:17.864Z,17.17
2019-02-03T05:31:48.571Z,16.77
2019-02-03T05:34:19.346Z,16.48
2019-02-03T05:36:49.995Z,17.50
2019-02-03T05:39:25.168Z,16.07
2019-02-03T05:41:53.221Z,16.10
2019-02-03T05:44:23.847Z,16.17
2019-02-03T05:46:54.587Z,15.55
2019-02-03T05:49:25.371Z,16.48
2019-02-03T05:51:56.212Z,15.15
2019-02-03T05:54:26.938Z,14.68
2019-02-03T05:56:57.813Z,16.07
2019-02-03T05:59:28.518Z,17.00
2019-02-03T06:01:59.211Z,15.35
2019-02-03T06:04:29.946Z,16.82
2019-02-03T06:07:00.541Z,15.90
2019-02-03T06:09:36.741Z,14.60
2019-02-03T06:12:03.584Z,13.63
2019-02-03T06:14:34.314Z,14.63
2019-02-03T06:17:04.966Z,15.45
2019-02-03T06:19:35.592Z,15.63
2019-02-03T06:22:06.442Z,14.07
2019-02-03T06:24:42.297Z,14.93
2019-02-03T06:27:12.964Z,14.35
2019-02-03T06:29:43.596Z,14.65
2019-02-03T06:32:14.192Z,13.27
2019-02-03T06:34:44.926Z,14.28
2019-02-03T06:37:15.515Z,13.30
2019-02-03T06:39:48.574Z,14.20
2019-02-03T06:42:18.431Z,12.95
2019-02-03T06:44:49.061Z,14.10
2019-02-03T06:47:23.934Z,13.58
2019-02-03T06:49:54.572Z,12.58
2019-02-03T06:52:25.113Z,13.25
2019-02-03T06:54:55.685Z,13.88
2019-02-03T06:57:26.173Z,14.45
2019-02-03T06:59:56.649Z,15.70
2019-02-03T07:02:27.188Z,14.00
2019-02-03T07:04:57.681Z,13.53
2019-02-03T07:07:28.160Z,15.63
2019-02-03T07:10:00.777Z,14.60
2019-02-03T07:12:30.878Z,14.73
2019-02-03T07:15:01.410Z,12.07
2019-02-03T07:17:31.944Z,12.85
2019-02-03T07:20:02.463Z,12.63
2019-02-03T07:22:33.033Z,13.90
2019-02-03T07:25:03.603Z,14.18
2019-02-03T07:27:34.135Z,12.70
2019-02-03T07:30:05.504Z,13.32
2019-02-03T07:32:36.044Z,13.35
2019-02-03T07:35:07.209Z,13.40
2019-02-03T07:37:38.030Z,14.33
2019-02-03T07:40:12.504Z,12.85
2019-02-03T07:42:40.961Z,13.35
2019-02-03T07:45:11.499Z,12.58
2019-02-03T07:47:42.047Z,13.95
2019-02-03T07:50:12.536Z,13.00
2019-02-03T07:52:43.012Z,13.03
2019-02-03T07:55:13.626Z,13.30
2019-02-03T07:57:44.422Z,13.40
2019-02-03T08:00:15.232Z,13.03
2019-02-03T08:02:45.892Z,13.70
2019-02-03T08:05:16.485Z,12.58
2019-02-03T08:07:46.982Z,13.05
2019-02-03T08:10:24.733Z,13.40
2019-02-03T08:12:50.197Z,12.68
2019-02-03T08:15:20.682Z,13.45
2019-02-03T08:17:51.267Z,12.40
2019-02-03T08:20:21.909Z,13.83
2019-02-03T08:22:52.450Z,13.88
2019-02-03T08:25:23.122Z,14.18
2019-02-03T08:27:53.651Z,12.93
2019-02-03T08:30:24.862Z,14.60
2019-02-03T08:32:55.426Z,15.17
2019-02-03T08:35:25.955Z,13.43
2019-02-03T08:37:56.434Z,13.33
2019-02-03T08:40:36.548Z,12.90
2019-02-03T08:43:00.067Z,12.47
2019-02-03T08:45:30.511Z,12.75
2019-02-03T08:48:01.080Z,12.37
2019-02-03T08:50:31.556Z,12.88
2019-02-03T08:53:02.134Z,12.75
2019-02-03T08:55:32.684Z,13.18
2019-02-03T08:58:03.183Z,12.70
2019-02-03T09:00:33.691Z,12.00
2019-02-03T09:03:04.240Z,12.13
2019-02-03T09:05:34.745Z,12.30
2019-02-03T09:08:05.327Z,12.30
2019-02-03T09:10:47.787Z,12.60
2019-02-03T09:13:09.754Z,11.53
2019-02-03T09:15:40.468Z,11.53
2019-02-03T09:18:11.036Z,12.50
2019-02-03T09:20:41.535Z,12.55
2019-02-03T09:23:12.072Z,12.43
2019-02-03T09:25:42.586Z,11.28
2019-02-03T09:28:13.112Z,10.30
2019-02-03T09:30:43.743Z,10.50
2019-02-03T09:33:14.306Z,10.28
2019-02-03T09:35:44.798Z,10.40
2019-02-03T09:38:15.251Z,10.25
2019-02-03T09:40:45.757Z,9.70
2019-02-03T09:43:16.637Z,9.98
2019-02-03T09:45:47.196Z,9.40
2019-02-03T09:48:17.924Z,7.90
2019-02-03T09:50:48.406Z,9.00
2019-02-03T09:53:18.879Z,9.30
2019-02-03T09:55:49.663Z,8.68
2019-02-03T09:58:20.165Z,7.95
2019-02-03T10:00:50.670Z,8.47
2019-02-03T10:03:21.199Z,6.45
2019-02-03T10:05:51.670Z,7.00
2019-02-03T10:08:22.174Z,7.30
2019-02-03T10:10:52.669Z,7.77
2019-02-03T10:13:23.277Z,7.03
2019-02-03T10:15:53.763Z,7.22
2019-02-03T10:18:24.701Z,6.37
2019-02-03T10:20:55.246Z,5.70
2019-02-03T10:23:25.762Z,5.87
2019-02-03T10:25:56.297Z,5.58
2019-02-03T10:28:26.738Z,5.40
2019-02-03T10:30:57.219Z,5.40
2019-02-03T10:33:27.833Z,4.87
2019-02-03T10:35:58.344Z,5.22
2019-02-03T10:38:28.830Z,5.30
2019-02-03T10:40:59.374Z,4.97
2019-02-03T10:43:29.836Z,4.55
2019-02-03T10:46:00.434Z,4.70
2019-02-03T10:48:31.008Z,4.03
2019-02-03T10:51:01.539Z,4.03
2019-02-03T10:53:33.769Z,3.70
2019-02-03T10:56:04.613Z,4.40
2019-02-03T10:58:35.114Z,3.87
2019-02-03T11:01:05.922Z,4.60
2019-02-03T11:03:36.460Z,4.40
2019-02-03T11:06:07.108Z,4.30
2019-02-03T11:08:37.641Z,4.50
2019-02-03T11:11:08.268Z,3.72
2019-02-03T11:13:38.834Z,3.80
2019-02-03T11:16:09.346Z,4.60
2019-02-03T11:18:39.830Z,4.10
2019-02-03T11:21:11.573Z,4.37
2019-02-03T11:23:43.450Z,3.60
2019-02-03T11:26:15.250Z,4.37
2019-02-03T11:28:45.725Z,3.90
2019-02-03T11:31:16.312Z,4.10
2019-02-03T11:33:46.840Z,3.65
2019-02-03T11:36:17.293Z,3.80
2019-02-03T11:38:47.825Z,3.55
2019-02-03T11:41:18.437Z,4.00
2019-02-03T11:43:48.976Z,3.50
2019-02-03T11:46:19.449Z,3.98
2019-02-03T11:48:50.008Z,3.65
2019-02-03T11:51:20.458Z,3.60
2019-02-03T11:53:50.965Z,3.90
2019-02-03T11:56:21.452Z,3.47
2019-02-03T11:58:51.944Z,3.70
2019-02-03T12:01:22.423Z,3.67
2019-02-03T12:03:52.973Z,3.70
2019-02-03T12:06:23.444Z,3.58
2019-02-03T12:08:53.945Z,3.60
2019-02-03T12:11:24.460Z,4.30
2019-02-03T12:13:54.961Z,4.70
2019-02-03T12:16:25.445Z,4.60
2019-02-03T12:18:56.110Z,4.08
2019-02-03T12:21:26.511Z,4.53
2019-02-03T12:23:57.027Z,4.08
2019-02-03T12:26:27.531Z,3.72
2019-02-03T12:28:58.113Z,3.95
2019-02-03T12:31:28.688Z,3.60
2019-02-03T12:33:59.217Z,3.70
2019-02-03T12:36:29.716Z,3.90
2019-02-03T12:39:00.189Z,3.92
2019-02-03T12:41:30.781Z,4.53
2019-02-03T12:44:01.629Z,4.45
2019-02-03T12:46:32.153Z,3.90
2019-02-03T12:49:02.659Z,3.70
2019-02-03T12:51:33.160Z,3.70
2019-02-03T12:54:03.675Z,4.08
2019-02-03T12:56:34.344Z,3.42
2019-02-03T12:59:04.819Z,3.30
2019-02-03T13:01:35.328Z,4.20
2019-02-03T13:04:05.968Z,3.90
2019-02-03T13:06:36.456Z,3.60
2019-02-03T13:09:10.716Z,3.90
2019-02-03T13:11:41.364Z,3.02
2019-02-03T13:14:12.275Z,3.55
2019-02-03T13:16:42.780Z,3.65
2019-02-03T13:19:15.646Z,4.45
2019-02-03T13:21:45.530Z,3.17
2019-02-03T13:24:18.619Z,3.42
2019-02-03T13:26:48.354Z,3.60
2019-02-03T13:29:18.851Z,3.70
2019-02-03T13:31:49.319Z,3.33
2019-02-03T13:34:19.977Z,3.80
2019-02-03T13:36:50.420Z,3.43
2019-02-03T13:39:20.924Z,3.70
2019-02-03T13:41:51.432Z,3.83
2019-02-03T13:44:21.968Z,3.60
2019-02-03T13:46:52.587Z,3.27
2019-02-03T13:49:23.108Z,4.03
2019-02-03T13:51:53.578Z,4.08
2019-02-03T13:54:24.128Z,3.92
2019-02-03T13:56:54.638Z,3.27
2019-02-03T13:59:50.140Z,3.58
2019-02-03T14:02:20.752Z,4.17
2019-02-03T14:07:33.701Z,4.10
2019-02-03T14:10:05.363Z,4.70
2019-02-03T14:12:36.044Z,3.75
2019-02-03T14:15:08.796Z,3.70
2019-02-03T14:17:39.663Z,4.03
2019-02-03T14:20:15.838Z,3.83
2019-02-03T14:22:46.429Z,3.60
2019-02-03T14:25:19.105Z,4.22
2019-02-03T14:27:49.945Z,3.70
2019-02-03T14:30:40.359Z,3.40
2019-02-03T14:33:05.984Z,3.63
2019-02-03T14:35:36.454Z,4.30
2019-02-03T14:38:08.176Z,4.87
2019-02-03T14:40:39.149Z,3.97
2019-02-03T14:43:09.785Z,3.80
2019-02-03T14:45:40.273Z,4.62
2019-02-03T14:48:10.880Z,3.90
2019-02-03T14:50:41.521Z,4.05
2019-02-03T14:53:15.477Z,4.12
2019-02-03T14:55:51.632Z,4.83
2019-02-03T14:58:22.314Z,4.17
2019-02-03T15:00:54.127Z,5.22
2019-02-03T15:03:26.752Z,4.60
2019-02-03T15:05:57.279Z,5.17
2019-02-03T15:08:27.773Z,5.07
2019-02-03T15:10:58.266Z,4.42
2019-02-03T15:13:28.806Z,4.60
2019-02-03T15:15:59.341Z,4.22
2019-02-03T15:18:29.817Z,5.80
2019-02-03T15:21:00.355Z,5.00
2019-02-03T15:23:30.831Z,5.30
2019-02-03T15:26:01.440Z,5.17
2019-02-03T15:28:31.969Z,7.10
2019-02-03T15:31:02.465Z,6.35
2019-02-03T15:33:32.964Z,5.55
2019-02-03T15:36:03.519Z,6.70
2019-02-03T15:38:34.037Z,6.75
2019-02-03T15:41:04.725Z,6.62
2019-02-03T15:43:35.276Z,8.15
2019-02-03T15:46:08.017Z,8.70
2019-02-03T15:48:38.547Z,7.40
2019-02-03T15:51:10.077Z,7.10
2019-02-03T15:53:40.726Z,6.72
2019-02-03T15:56:11.474Z,6.80
2019-02-03T15:58:42.102Z,5.95
2019-02-03T16:01:12.611Z,5.80
2019-02-03T16:03:44.926Z,5.85
2019-02-03T16:06:15.638Z,5.72
2019-02-03T16:08:46.153Z,5.50
2019-02-03T16:11:17.006Z,5.17
2019-02-03T16:13:47.585Z,5.50
2019-02-03T16:16:18.179Z,5.40
2019-02-03T16:18:48.806Z,5.83
2019-02-03T16:21:19.552Z,5.20
2019-02-03T16:23:50.208Z,5.80
2019-02-03T16:26:20.931Z,4.83
2019-02-03T16:28:56.223Z,5.40
2019-02-03T16:31:27.434Z,5.00
2019-02-03T16:33:58.248Z,5.15
2019-02-03T16:36:33.479Z,4.30
2019-02-03T16:46:58.389Z,4.00
2019-02-03T16:49:30.635Z,3.80
2019-02-03T16:58:50.500Z,3.75
2019-02-03T17:01:44.058Z,3.87
2019-02-03T17:04:24.385Z,3.65
2019-02-03T17:06:54.929Z,3.27
2019-02-03T17:09:25.422Z,3.80
2019-02-03T17:11:56.301Z,3.15
2019-02-03T17:14:27.800Z,3.92
2019-02-03T17:16:58.490Z,4.70
2019-02-03T17:19:29.109Z,5.30
2019-02-03T17:21:59.961Z,3.95
2019-02-03T17:24:49.994Z,3.30
2019-02-03T17:27:20.536Z,2.98
2019-02-03T17:29:51.143Z,3.52
2019-02-03T17:32:21.918Z,2.90
2019-02-03T17:34:52.543Z,2.80
2019-02-03T17:37:23.408Z,3.00
2019-02-03T17:39:56.792Z,2.90
2019-02-03T17:42:27.272Z,3.15
2019-02-03T17:44:57.938Z,2.67
2019-02-03T17:47:28.518Z,2.90
2019-02-03T17:49:59.360Z,2.65
2019-02-03T17:52:38.660Z,2.05
2019-02-03T17:55:03.700Z,2.50
2019-02-03T17:57:34.418Z,2.42
2019-02-03T18:00:06.001Z,2.45
2019-02-03T18:02:37.880Z,2.55
2019-02-03T18:05:10.929Z,2.00
2019-02-03T18:07:41.801Z,2.60
2019-02-03T18:10:16.413Z,2.80
2019-02-03T18:12:47.016Z,2.72
2019-02-03T18:15:17.904Z,2.47
2019-02-03T18:17:49.069Z,3.15
2019-02-03T18:29:09.013Z,3.20
2019-02-03T18:31:39.605Z,3.47
2019-02-03T18:34:10.153Z,3.25
2019-02-03T18:36:40.716Z,3.15
2019-02-03T18:39:11.796Z,3.20
2019-02-03T18:41:42.366Z,3.53
2019-02-03T18:44:12.975Z,3.08
2019-02-03T18:46:43.943Z,3.20
2019-02-03T18:49:14.632Z,3.17
2019-02-03T18:51:45.821Z,3.30
2019-02-03T18:54:16.396Z,5.08
2019-02-03T18:56:47.429Z,4.45
2019-02-03T18:59:18.070Z,2.90
2019-02-03T19:01:48.899Z,3.15
2019-02-03T19:04:19.915Z,2.95
2019-02-03T19:06:50.910Z,3.27
2019-02-03T19:09:21.701Z,2.60
2019-02-03T19:11:52.482Z,2.40
2019-02-03T19:14:23.507Z,2.72
2019-02-03T19:16:54.401Z,3.15
2019-02-03T19:19:24.995Z,4.00
2019-02-03T19:21:55.647Z,2.42
2019-02-03T19:24:26.687Z,2.70
2019-02-03T19:26:57.922Z,2.70
2019-02-03T19:29:31.789Z,3.27
2019-02-03T19:32:02.553Z,2.70
2019-02-03T19:34:33.308Z,2.83
2019-02-03T19:37:05.596Z,2.67
2019-02-03T19:39:37.866Z,2.60
2019-02-03T19:42:08.707Z,2.65
2019-02-03T19:44:39.454Z,2.00
2019-02-03T19:47:12.346Z,2.70
2019-02-03T19:49:46.648Z,2.80
2019-02-03T19:52:17.054Z,2.72
2019-02-03T19:54:51.842Z,2.15
2019-02-03T19:57:23.215Z,3.17
2019-02-03T19:59:54.586Z,3.47
2019-02-03T20:02:25.570Z,3.77
2019-02-03T20:04:56.412Z,2.80
2019-02-03T20:07:27.274Z,3.15
2019-02-03T20:09:57.895Z,2.33
2019-02-03T20:12:28.672Z,2.55
2019-02-03T20:15:09.620Z,3.15
2019-02-03T20:17:32.299Z,3.22
2019-02-03T20:20:03.958Z,2.45
2019-02-03T20:22:34.621Z,2.97
2019-02-03T20:25:06.430Z,3.10
2019-02-03T20:27:37.133Z,3.52
2019-02-03T20:30:16.123Z,3.75
2019-02-03T20:32:46.820Z,3.72
2019-02-03T20:35:18.367Z,3.60
2019-02-03T20:37:49.215Z,3.62
2019-02-03T20:40:30.388Z,3.00
2019-02-03T20:43:01.352Z,3.63
2019-02-03T20:45:32.040Z,2.85
2019-02-03T20:48:02.917Z,3.40
2019-02-03T20:50:33.522Z,3.17
2019-02-03T20:53:04.188Z,2.50
2019-02-03T20:55:34.829Z,3.35
2019-02-03T20:58:05.469Z,3.33
2019-02-03T21:00:36.948Z,3.42
2019-02-03T21:03:07.969Z,2.60
2019-02-03T21:05:38.702Z,2.40
2019-02-03T21:08:09.333Z,2.55
2019-02-03T21:10:40.049Z,2.62
2019-02-03T21:13:11.727Z,2.60
2019-02-03T21:15:42.840Z,2.50
2019-02-03T21:18:13.485Z,2.42
2019-02-03T21:20:44.705Z,2.55
2019-02-03T21:23:16.655Z,2.65
2019-02-03T21:25:47.236Z,2.47
2019-02-03T21:28:17.922Z,2.58
2019-02-03T21:30:48.806Z,3.33
2019-02-03T21:33:19.605Z,2.30
2019-02-03T21:35:50.184Z,2.70
2019-02-03T21:38:20.997Z,2.12
2019-02-03T21:40:51.613Z,3.40
2019-02-03T21:43:22.441Z,4.27
2019-02-03T21:45:52.992Z,3.70
2019-02-03T21:48:23.503Z,2.83
2019-02-03T21:50:55.424Z,3.52
2019-02-03T21:53:25.982Z,3.05
2019-02-03T21:55:56.682Z,2.90
2019-02-03T21:58:27.190Z,3.20
2019-02-03T22:00:57.664Z,3.08
2019-02-03T22:04:49.549Z,3.27
2019-02-03T22:07:21.957Z,3.45
2019-02-03T22:09:52.457Z,3.33
2019-02-03T22:12:22.947Z,4.00
2019-02-03T22:14:53.477Z,3.60
2019-02-03T22:17:23.968Z,4.00
2019-02-03T22:19:54.775Z,4.10
2019-02-03T22:22:25.319Z,3.60
2019-02-03T22:24:55.826Z,3.50
2019-02-03T22:27:26.372Z,2.90
2019-02-03T22:29:57.001Z,2.70
2019-02-03T22:32:27.784Z,2.13
2019-02-03T22:34:58.282Z,2.72
2019-02-03T22:37:28.780Z,2.80
2019-02-03T22:39:59.379Z,2.75
2019-02-03T22:42:29.921Z,2.60
2019-02-03T22:45:00.578Z,2.40
2019-02-03T22:47:31.080Z,2.00
2019-02-03T22:50:01.601Z,2.20
2019-02-03T22:52:32.119Z,2.67
2019-02-03T22:55:02.652Z,2.90
2019-02-03T22:57:33.518Z,2.20
2019-02-03T23:00:11.351Z,2.30
2019-02-03T23:02:41.902Z,2.15
2019-02-03T23:05:12.537Z,2.40
2019-02-03T23:07:43.029Z,2.50
2019-02-03T23:10:13.592Z,2.95
2019-02-03T23:12:44.158Z,2.40
2019-02-03T23:15:14.819Z,2.50
2019-02-03T23:17:45.325Z,2.50
2019-02-03T23:20:15.838Z,2.20
2019-02-03T23:22:46.373Z,2.50
2019-02-03T23:25:16.850Z,2.10
2019-02-03T23:27:47.351Z,2.20
2019-02-03T23:30:18.174Z,2.00
2019-02-03T23:32:48.685Z,2.00
2019-02-03T23:35:19.474Z,2.17
2019-02-03T23:37:50.012Z,2.58
2019-02-03T23:40:21.092Z,2.25
2019-02-03T23:42:51.599Z,2.70
2019-02-03T23:45:22.110Z,2.40
2019-02-03T23:47:52.912Z,2.10
2019-02-03T23:50:23.423Z,2.15
2019-02-03T23:52:53.948Z,1.87
2019-02-03T23:55:24.443Z,1.57
2019-02-03T23:57:54.935Z,2.10
